sensor_id;sensor_type;location;lat;lon;timestamp;temperature;humidity
4058;DHT22;2044;48.692;9.020;2022-10-16T00:01:35;14.40;1.00
4058;DHT22;2044;48.692;9.020;2022-10-16T00:04:03;14.30;1.00
4058;DHT22;2044;48.692;9.020;2022-10-16T00:06:31;14.30;1.00
4058;DHT22;2044;48.692;9.020;2022-10-16T00:08:58;14.30;1.00
4058;DHT22;2044;48.692;9.020;2022-10-16T00:11:26;14.20;4.40
4058;DHT22;2044;48.692;9.020;2022-10-16T00:13:56;14.10;1.00
4058;DHT22;2044;48.692;9.020;2022-10-16T00:16:23;14.00;10.40
4058;DHT22;2044;48.692;9.020;2022-10-16T00:18:50;14.00;21.40
4058;DHT22;2044;48.692;9.020;2022-10-16T00:21:20;13.90;26.20
4058;DHT22;2044;48.692;9.020;2022-10-16T00:23:50;13.90;30.40
4058;DHT22;2044;48.692;9.020;2022-10-16T00:26:18;13.90;53.50
4058;DHT22;2044;48.692;9.020;2022-10-16T00:28:46;14.00;53.40
4058;DHT22;2044;48.692;9.020;2022-10-16T00:31:13;13.90;43.80
4058;DHT22;2044;48.692;9.020;2022-10-16T00:33:40;13.90;62.80
4058;DHT22;2044;48.692;9.020;2022-10-16T00:36:10;13.80;51.00
4058;DHT22;2044;48.692;9.020;2022-10-16T00:38:39;13.80;75.10
4058;DHT22;2044;48.692;9.020;2022-10-16T00:41:09;13.80;71.50
4058;DHT22;2044;48.692;9.020;2022-10-16T00:43:39;13.80;89.10
4058;DHT22;2044;48.692;9.020;2022-10-16T00:46:13;13.90;82.20
4058;DHT22;2044;48.692;9.020;2022-10-16T00:48:41;13.90;80.90
4058;DHT22;2044;48.692;9.020;2022-10-16T00:51:08;13.90;56.30
4058;DHT22;2044;48.692;9.020;2022-10-16T00:53:35;13.90;59.80
4058;DHT22;2044;48.692;9.020;2022-10-16T00:56:04;14.00;81.90
4058;DHT22;2044;48.692;9.020;2022-10-16T00:58:31;14.00;68.20
4058;DHT22;2044;48.692;9.020;2022-10-16T01:00:58;14.00;61.00
4058;DHT22;2044;48.692;9.020;2022-10-16T01:03:28;14.00;46.40
4058;DHT22;2044;48.692;9.020;2022-10-16T01:06:05;14.00;30.50
4058;DHT22;2044;48.692;9.020;2022-10-16T01:08:44;14.00;34.70
4058;DHT22;2044;48.692;9.020;2022-10-16T01:11:17;14.00;24.90
4058;DHT22;2044;48.692;9.020;2022-10-16T01:13:50;14.00;37.40
4058;DHT22;2044;48.692;9.020;2022-10-16T01:16:24;14.00;42.40
4058;DHT22;2044;48.692;9.020;2022-10-16T01:18:59;14.00;36.70
4058;DHT22;2044;48.692;9.020;2022-10-16T01:21:32;14.00;49.70
4058;DHT22;2044;48.692;9.020;2022-10-16T01:24:06;14.00;45.80
4058;DHT22;2044;48.692;9.020;2022-10-16T01:26:50;14.00;27.20
4058;DHT22;2044;48.692;9.020;2022-10-16T01:29:23;13.90;62.80
4058;DHT22;2044;48.692;9.020;2022-10-16T01:31:56;13.90;29.30
4058;DHT22;2044;48.692;9.020;2022-10-16T01:34:31;13.90;43.40
4058;DHT22;2044;48.692;9.020;2022-10-16T01:37:04;14.00;76.80
4058;DHT22;2044;48.692;9.020;2022-10-16T01:39:35;14.10;36.00
4058;DHT22;2044;48.692;9.020;2022-10-16T01:42:07;14.10;8.30
4058;DHT22;2044;48.692;9.020;2022-10-16T01:44:38;14.10;11.10
4058;DHT22;2044;48.692;9.020;2022-10-16T01:47:06;14.10;1.70
4058;DHT22;2044;48.692;9.020;2022-10-16T01:49:36;14.10;6.90
4058;DHT22;2044;48.692;9.020;2022-10-16T01:52:07;14.00;15.70
4058;DHT22;2044;48.692;9.020;2022-10-16T01:54:37;14.00;16.80
4058;DHT22;2044;48.692;9.020;2022-10-16T01:57:05;14.10;13.70
4058;DHT22;2044;48.692;9.020;2022-10-16T01:59:33;14.10;13.20
4058;DHT22;2044;48.692;9.020;2022-10-16T02:02:06;14.10;1.00
4058;DHT22;2044;48.692;9.020;2022-10-16T02:04:37;14.10;1.00
4058;DHT22;2044;48.692;9.020;2022-10-16T02:07:05;14.20;1.00
4058;DHT22;2044;48.692;9.020;2022-10-16T02:09:33;14.30;1.00
4058;DHT22;2044;48.692;9.020;2022-10-16T02:12:05;14.30;1.00
4058;DHT22;2044;48.692;9.020;2022-10-16T02:14:34;14.30;1.00
4058;DHT22;2044;48.692;9.020;2022-10-16T02:17:12;14.40;1.00
4058;DHT22;2044;48.692;9.020;2022-10-16T02:19:39;14.40;1.00
4058;DHT22;2044;48.692;9.020;2022-10-16T02:22:09;14.40;1.00
4058;DHT22;2044;48.692;9.020;2022-10-16T02:24:42;14.50;1.00
4058;DHT22;2044;48.692;9.020;2022-10-16T02:27:13;14.50;1.00
4058;DHT22;2044;48.692;9.020;2022-10-16T02:29:44;14.60;1.00
4058;DHT22;2044;48.692;9.020;2022-10-16T02:32:19;14.70;1.00
4058;DHT22;2044;48.692;9.020;2022-10-16T02:34:48;14.80;1.00
4058;DHT22;2044;48.692;9.020;2022-10-16T02:37:16;14.70;1.00
4058;DHT22;2044;48.692;9.020;2022-10-16T02:39:44;14.70;1.00
4058;DHT22;2044;48.692;9.020;2022-10-16T02:42:12;14.70;1.00
4058;DHT22;2044;48.692;9.020;2022-10-16T02:44:38;14.70;1.00
4058;DHT22;2044;48.692;9.020;2022-10-16T02:47:05;14.70;1.00
4058;DHT22;2044;48.692;9.020;2022-10-16T02:49:34;14.60;1.00
4058;DHT22;2044;48.692;9.020;2022-10-16T02:52:00;14.60;1.00
4058;DHT22;2044;48.692;9.020;2022-10-16T02:54:27;14.50;1.00
4058;DHT22;2044;48.692;9.020;2022-10-16T02:56:54;14.40;1.00
4058;DHT22;2044;48.692;9.020;2022-10-16T02:59:20;14.40;1.00
4058;DHT22;2044;48.692;9.020;2022-10-16T03:01:47;14.40;1.00
4058;DHT22;2044;48.692;9.020;2022-10-16T03:04:14;14.30;1.00
4058;DHT22;2044;48.692;9.020;2022-10-16T03:06:42;14.20;1.00
4058;DHT22;2044;48.692;9.020;2022-10-16T03:09:08;14.20;1.00
4058;DHT22;2044;48.692;9.020;2022-10-16T03:11:35;14.30;1.00
4058;DHT22;2044;48.692;9.020;2022-10-16T03:14:02;14.30;1.00
4058;DHT22;2044;48.692;9.020;2022-10-16T03:16:29;14.30;1.00
4058;DHT22;2044;48.692;9.020;2022-10-16T03:18:55;14.20;1.00
4058;DHT22;2044;48.692;9.020;2022-10-16T03:21:22;14.10;1.00
4058;DHT22;2044;48.692;9.020;2022-10-16T03:23:50;14.10;1.00
4058;DHT22;2044;48.692;9.020;2022-10-16T03:26:17;14.00;1.00
4058;DHT22;2044;48.692;9.020;2022-10-16T03:28:44;14.00;1.00
4058;DHT22;2044;48.692;9.020;2022-10-16T03:31:10;14.00;1.00
4058;DHT22;2044;48.692;9.020;2022-10-16T03:33:37;13.90;1.00
4058;DHT22;2044;48.692;9.020;2022-10-16T03:36:04;13.90;1.00
4058;DHT22;2044;48.692;9.020;2022-10-16T03:38:31;13.80;1.30
4058;DHT22;2044;48.692;9.020;2022-10-16T03:40:59;13.80;4.60
4058;DHT22;2044;48.692;9.020;2022-10-16T03:43:26;13.80;34.60
4058;DHT22;2044;48.692;9.020;2022-10-16T03:45:52;13.70;31.70
4058;DHT22;2044;48.692;9.020;2022-10-16T03:48:19;13.70;17.20
4058;DHT22;2044;48.692;9.020;2022-10-16T03:50:46;13.70;41.20
4058;DHT22;2044;48.692;9.020;2022-10-16T03:53:14;13.70;22.60
4058;DHT22;2044;48.692;9.020;2022-10-16T03:55:41;13.70;43.40
4058;DHT22;2044;48.692;9.020;2022-10-16T03:58:09;13.80;11.40
4058;DHT22;2044;48.692;9.020;2022-10-16T04:00:40;13.70;13.00
4058;DHT22;2044;48.692;9.020;2022-10-16T04:03:06;13.70;29.50
4058;DHT22;2044;48.692;9.020;2022-10-16T04:05:34;13.70;23.10
4058;DHT22;2044;48.692;9.020;2022-10-16T04:08:00;13.70;28.60
4058;DHT22;2044;48.692;9.020;2022-10-16T04:10:27;13.60;35.00
4058;DHT22;2044;48.692;9.020;2022-10-16T04:12:54;13.60;38.20
4058;DHT22;2044;48.692;9.020;2022-10-16T04:15:22;13.60;54.10
4058;DHT22;2044;48.692;9.020;2022-10-16T04:17:49;13.60;42.30
4058;DHT22;2044;48.692;9.020;2022-10-16T04:20:16;13.40;40.70
4058;DHT22;2044;48.692;9.020;2022-10-16T04:22:43;13.50;67.60
4058;DHT22;2044;48.692;9.020;2022-10-16T04:25:10;13.50;67.10
4058;DHT22;2044;48.692;9.020;2022-10-16T04:27:37;13.50;52.40
4058;DHT22;2044;48.692;9.020;2022-10-16T04:30:05;13.50;56.40
4058;DHT22;2044;48.692;9.020;2022-10-16T04:32:34;13.50;58.30
4058;DHT22;2044;48.692;9.020;2022-10-16T04:35:00;13.60;67.80
4058;DHT22;2044;48.692;9.020;2022-10-16T04:37:28;13.60;77.20
4058;DHT22;2044;48.692;9.020;2022-10-16T04:39:55;13.60;90.10
4058;DHT22;2044;48.692;9.020;2022-10-16T04:42:22;13.70;76.30
4058;DHT22;2044;48.692;9.020;2022-10-16T04:44:48;13.70;74.90
4058;DHT22;2044;48.692;9.020;2022-10-16T04:47:15;13.70;58.00
4058;DHT22;2044;48.692;9.020;2022-10-16T04:49:43;13.70;70.70
4058;DHT22;2044;48.692;9.020;2022-10-16T04:52:10;13.90;28.60
4058;DHT22;2044;48.692;9.020;2022-10-16T04:54:36;13.90;26.10
4058;DHT22;2044;48.692;9.020;2022-10-16T04:57:03;13.80;23.70
4058;DHT22;2044;48.692;9.020;2022-10-16T04:59:30;13.80;22.70
4058;DHT22;2044;48.692;9.020;2022-10-16T05:01:57;13.80;45.50
4058;DHT22;2044;48.692;9.020;2022-10-16T05:04:23;13.70;38.60
4058;DHT22;2044;48.692;9.020;2022-10-16T05:06:52;13.70;30.40
4058;DHT22;2044;48.692;9.020;2022-10-16T05:09:18;13.70;45.90
4058;DHT22;2044;48.692;9.020;2022-10-16T05:11:45;13.70;25.90
4058;DHT22;2044;48.692;9.020;2022-10-16T05:14:12;13.70;39.40
4058;DHT22;2044;48.692;9.020;2022-10-16T05:16:39;13.60;33.50
4058;DHT22;2044;48.692;9.020;2022-10-16T05:19:06;13.50;41.80
4058;DHT22;2044;48.692;9.020;2022-10-16T05:21:32;13.40;40.70
4058;DHT22;2044;48.692;9.020;2022-10-16T05:24:00;13.30;64.50
4058;DHT22;2044;48.692;9.020;2022-10-16T05:26:27;13.20;55.80
4058;DHT22;2044;48.692;9.020;2022-10-16T05:28:54;13.10;88.60
4058;DHT22;2044;48.692;9.020;2022-10-16T05:31:21;13.00;68.90
4058;DHT22;2044;48.692;9.020;2022-10-16T05:33:47;13.20;98.00
4058;DHT22;2044;48.692;9.020;2022-10-16T05:36:14;13.20;99.20
4058;DHT22;2044;48.692;9.020;2022-10-16T05:38:41;13.20;99.90
4058;DHT22;2044;48.692;9.020;2022-10-16T05:41:10;13.30;98.50
4058;DHT22;2044;48.692;9.020;2022-10-16T05:43:37;13.20;99.90
4058;DHT22;2044;48.692;9.020;2022-10-16T05:46:05;13.20;99.00
4058;DHT22;2044;48.692;9.020;2022-10-16T05:48:32;13.40;99.90
4058;DHT22;2044;48.692;9.020;2022-10-16T05:51:00;13.60;99.90
4058;DHT22;2044;48.692;9.020;2022-10-16T05:53:28;13.80;55.40
4058;DHT22;2044;48.692;9.020;2022-10-16T05:55:55;13.90;25.10
4058;DHT22;2044;48.692;9.020;2022-10-16T05:58:25;14.10;1.10
4058;DHT22;2044;48.692;9.020;2022-10-16T06:00:53;14.10;1.00
4058;DHT22;2044;48.692;9.020;2022-10-16T06:03:20;14.20;1.00
4058;DHT22;2044;48.692;9.020;2022-10-16T06:05:47;14.30;1.00
4058;DHT22;2044;48.692;9.020;2022-10-16T06:08:13;14.40;1.00
4058;DHT22;2044;48.692;9.020;2022-10-16T06:10:40;14.30;1.00
4058;DHT22;2044;48.692;9.020;2022-10-16T06:13:07;14.30;1.00
4058;DHT22;2044;48.692;9.020;2022-10-16T06:15:35;14.30;1.00
4058;DHT22;2044;48.692;9.020;2022-10-16T06:18:07;14.30;1.00
4058;DHT22;2044;48.692;9.020;2022-10-16T06:20:34;14.40;1.00
4058;DHT22;2044;48.692;9.020;2022-10-16T06:23:01;14.40;1.00
4058;DHT22;2044;48.692;9.020;2022-10-16T06:25:29;14.40;1.00
4058;DHT22;2044;48.692;9.020;2022-10-16T06:27:56;14.40;1.00
4058;DHT22;2044;48.692;9.020;2022-10-16T06:30:23;14.60;1.00
4058;DHT22;2044;48.692;9.020;2022-10-16T06:32:51;14.50;1.00
4058;DHT22;2044;48.692;9.020;2022-10-16T06:35:17;14.60;1.00
4058;DHT22;2044;48.692;9.020;2022-10-16T06:37:44;14.80;1.00
4058;DHT22;2044;48.692;9.020;2022-10-16T06:40:13;14.80;1.00
4058;DHT22;2044;48.692;9.020;2022-10-16T06:42:40;15.10;1.00
4058;DHT22;2044;48.692;9.020;2022-10-16T06:45:10;15.70;99.90
4058;DHT22;2044;48.692;9.020;2022-10-16T06:47:36;16.70;1.00
4058;DHT22;2044;48.692;9.020;2022-10-16T06:50:06;16.70;99.90
4058;DHT22;2044;48.692;9.020;2022-10-16T06:52:33;16.20;99.90
4058;DHT22;2044;48.692;9.020;2022-10-16T06:55:00;15.80;1.00
4058;DHT22;2044;48.692;9.020;2022-10-16T06:57:28;15.60;99.90
4058;DHT22;2044;48.692;9.020;2022-10-16T06:59:55;15.50;99.90
4058;DHT22;2044;48.692;9.020;2022-10-16T07:02:21;15.50;99.90
4058;DHT22;2044;48.692;9.020;2022-10-16T07:04:48;15.40;99.90
4058;DHT22;2044;48.692;9.020;2022-10-16T07:07:16;15.40;99.90
4058;DHT22;2044;48.692;9.020;2022-10-16T07:09:43;15.40;99.90
4058;DHT22;2044;48.692;9.020;2022-10-16T07:12:09;15.40;99.90
4058;DHT22;2044;48.692;9.020;2022-10-16T07:14:36;15.40;99.90
4058;DHT22;2044;48.692;9.020;2022-10-16T07:17:03;15.40;99.90
4058;DHT22;2044;48.692;9.020;2022-10-16T07:19:29;15.30;99.90
4058;DHT22;2044;48.692;9.020;2022-10-16T07:21:56;15.30;99.90
4058;DHT22;2044;48.692;9.020;2022-10-16T07:24:24;15.30;99.90
4058;DHT22;2044;48.692;9.020;2022-10-16T07:26:51;15.30;99.90
4058;DHT22;2044;48.692;9.020;2022-10-16T07:29:20;15.30;99.90
4058;DHT22;2044;48.692;9.020;2022-10-16T07:31:47;15.30;99.90
4058;DHT22;2044;48.692;9.020;2022-10-16T07:34:16;15.40;99.90
4058;DHT22;2044;48.692;9.020;2022-10-16T07:36:43;15.50;99.90
4058;DHT22;2044;48.692;9.020;2022-10-16T07:39:09;15.50;99.90
4058;DHT22;2044;48.692;9.020;2022-10-16T07:41:37;15.60;99.90
4058;DHT22;2044;48.692;9.020;2022-10-16T07:44:04;15.60;99.90
4058;DHT22;2044;48.692;9.020;2022-10-16T07:46:32;15.60;99.90
4058;DHT22;2044;48.692;9.020;2022-10-16T07:48:59;15.70;99.90
4058;DHT22;2044;48.692;9.020;2022-10-16T07:51:26;15.70;99.90
4058;DHT22;2044;48.692;9.020;2022-10-16T07:53:54;15.80;31.70
4058;DHT22;2044;48.692;9.020;2022-10-16T07:56:21;15.90;45.60
4058;DHT22;2044;48.692;9.020;2022-10-16T07:58:50;16.00;1.00
4058;DHT22;2044;48.692;9.020;2022-10-16T08:01:17;16.00;1.00
4058;DHT22;2044;48.692;9.020;2022-10-16T08:03:46;16.00;1.00
4058;DHT22;2044;48.692;9.020;2022-10-16T08:06:13;16.00;1.00
4058;DHT22;2044;48.692;9.020;2022-10-16T08:08:40;16.00;1.00
4058;DHT22;2044;48.692;9.020;2022-10-16T08:11:07;16.10;1.00
4058;DHT22;2044;48.692;9.020;2022-10-16T08:13:34;16.20;1.00
4058;DHT22;2044;48.692;9.020;2022-10-16T08:16:02;16.20;1.00
4058;DHT22;2044;48.692;9.020;2022-10-16T08:18:33;16.30;1.00
4058;DHT22;2044;48.692;9.020;2022-10-16T08:21:00;16.60;99.90
4058;DHT22;2044;48.692;9.020;2022-10-16T08:23:27;16.70;74.30
4058;DHT22;2044;48.692;9.020;2022-10-16T08:25:54;16.80;99.90
4058;DHT22;2044;48.692;9.020;2022-10-16T08:28:22;17.00;45.30
4058;DHT22;2044;48.692;9.020;2022-10-16T08:30:49;17.20;99.90
4058;DHT22;2044;48.692;9.020;2022-10-16T08:33:17;17.30;99.90
4058;DHT22;2044;48.692;9.020;2022-10-16T08:35:50;17.40;99.90
4058;DHT22;2044;48.692;9.020;2022-10-16T08:38:17;17.20;47.20
4058;DHT22;2044;48.692;9.020;2022-10-16T08:40:44;17.30;99.90
4058;DHT22;2044;48.692;9.020;2022-10-16T08:43:23;17.20;1.00
4058;DHT22;2044;48.692;9.020;2022-10-16T08:46:11;17.30;1.00
4058;DHT22;2044;48.692;9.020;2022-10-16T08:48:46;17.30;1.00
4058;DHT22;2044;48.692;9.020;2022-10-16T08:51:19;17.20;1.00
4058;DHT22;2044;48.692;9.020;2022-10-16T08:53:53;17.20;1.00
4058;DHT22;2044;48.692;9.020;2022-10-16T08:56:20;17.30;1.00
4058;DHT22;2044;48.692;9.020;2022-10-16T08:58:48;17.30;1.00
4058;DHT22;2044;48.692;9.020;2022-10-16T09:01:17;17.50;1.00
4058;DHT22;2044;48.692;9.020;2022-10-16T09:06:56;18.10;1.00
4058;DHT22;2044;48.692;9.020;2022-10-16T09:09:35;18.90;99.90
4058;DHT22;2044;48.692;9.020;2022-10-16T09:12:12;18.90;1.00
4058;DHT22;2044;48.692;9.020;2022-10-16T09:14:56;19.20;99.90
4058;DHT22;2044;48.692;9.020;2022-10-16T09:17:32;20.10;1.00
4058;DHT22;2044;48.692;9.020;2022-10-16T09:20:20;20.10;99.90
4058;DHT22;2044;48.692;9.020;2022-10-16T09:22:52;21.30;99.90
4058;DHT22;2044;48.692;9.020;2022-10-16T09:25:21;21.70;1.00
4058;DHT22;2044;48.692;9.020;2022-10-16T09:27:56;22.50;99.90
4058;DHT22;2044;48.692;9.020;2022-10-16T09:30:26;22.60;99.90
4058;DHT22;2044;48.692;9.020;2022-10-16T09:32:53;22.10;99.90
4058;DHT22;2044;48.692;9.020;2022-10-16T09:35:22;20.90;97.20
4058;DHT22;2044;48.692;9.020;2022-10-16T09:37:54;20.50;99.90
4058;DHT22;2044;48.692;9.020;2022-10-16T09:40:25;20.00;99.90
4058;DHT22;2044;48.692;9.020;2022-10-16T09:42:57;19.90;1.00
4058;DHT22;2044;48.692;9.020;2022-10-16T09:45:27;20.20;6.60
4058;DHT22;2044;48.692;9.020;2022-10-16T09:47:54;20.50;1.00
4058;DHT22;2044;48.692;9.020;2022-10-16T09:50:23;21.00;99.90
4058;DHT22;2044;48.692;9.020;2022-10-16T09:53:03;21.10;99.90
4058;DHT22;2044;48.692;9.020;2022-10-16T09:55:30;21.50;99.90
4058;DHT22;2044;48.692;9.020;2022-10-16T09:57:57;22.00;99.90
4058;DHT22;2044;48.692;9.020;2022-10-16T10:00:25;22.20;89.50
4058;DHT22;2044;48.692;9.020;2022-10-16T10:02:52;22.20;91.20
4058;DHT22;2044;48.692;9.020;2022-10-16T10:05:21;22.60;22.20
4058;DHT22;2044;48.692;9.020;2022-10-16T10:07:55;23.60;1.00
4058;DHT22;2044;48.692;9.020;2022-10-16T10:10:24;25.10;1.00
4058;DHT22;2044;48.692;9.020;2022-10-16T10:12:51;26.30;99.90
4058;DHT22;2044;48.692;9.020;2022-10-16T10:15:18;27.30;99.90
4058;DHT22;2044;48.692;9.020;2022-10-16T10:17:49;27.30;99.90
4058;DHT22;2044;48.692;9.020;2022-10-16T10:20:23;26.10;99.90
4058;DHT22;2044;48.692;9.020;2022-10-16T10:22:50;25.50;99.90
4058;DHT22;2044;48.692;9.020;2022-10-16T10:25:39;25.60;99.90
4058;DHT22;2044;48.692;9.020;2022-10-16T10:28:21;24.90;99.90
4058;DHT22;2044;48.692;9.020;2022-10-16T10:30:58;24.00;99.90
4058;DHT22;2044;48.692;9.020;2022-10-16T10:33:32;24.10;99.90
4058;DHT22;2044;48.692;9.020;2022-10-16T10:36:10;23.90;99.90
4058;DHT22;2044;48.692;9.020;2022-10-16T10:38:43;23.80;99.90
4058;DHT22;2044;48.692;9.020;2022-10-16T10:41:36;23.80;99.90
4058;DHT22;2044;48.692;9.020;2022-10-16T10:44:13;23.90;99.90
4058;DHT22;2044;48.692;9.020;2022-10-16T10:46:48;23.60;99.90
4058;DHT22;2044;48.692;9.020;2022-10-16T10:49:28;23.60;99.90
4058;DHT22;2044;48.692;9.020;2022-10-16T10:52:05;23.40;99.90
4058;DHT22;2044;48.692;9.020;2022-10-16T10:54:41;23.40;1.00
4058;DHT22;2044;48.692;9.020;2022-10-16T10:57:20;23.70;99.90
4058;DHT22;2044;48.692;9.020;2022-10-16T11:00:03;23.70;99.90
4058;DHT22;2044;48.692;9.020;2022-10-16T11:02:36;25.30;99.90
4058;DHT22;2044;48.692;9.020;2022-10-16T11:05:21;26.30;99.90
4058;DHT22;2044;48.692;9.020;2022-10-16T11:07:52;26.50;99.90
4058;DHT22;2044;48.692;9.020;2022-10-16T11:10:22;25.80;99.90
4058;DHT22;2044;48.692;9.020;2022-10-16T11:12:53;24.00;99.90
4058;DHT22;2044;48.692;9.020;2022-10-16T11:15:25;23.60;99.90
4058;DHT22;2044;48.692;9.020;2022-10-16T11:17:59;23.50;99.90
4058;DHT22;2044;48.692;9.020;2022-10-16T11:20:29;23.90;99.90
4058;DHT22;2044;48.692;9.020;2022-10-16T11:23:01;24.00;1.00
4058;DHT22;2044;48.692;9.020;2022-10-16T11:25:30;24.60;99.90
4058;DHT22;2044;48.692;9.020;2022-10-16T11:28:02;24.80;99.90
4058;DHT22;2044;48.692;9.020;2022-10-16T11:30:31;23.20;99.90
4058;DHT22;2044;48.692;9.020;2022-10-16T11:33:20;23.20;1.00
4058;DHT22;2044;48.692;9.020;2022-10-16T11:35:53;23.80;99.90
4058;DHT22;2044;48.692;9.020;2022-10-16T11:38:27;23.90;99.90
4058;DHT22;2044;48.692;9.020;2022-10-16T11:40:59;24.00;99.90
4058;DHT22;2044;48.692;9.020;2022-10-16T11:43:32;24.50;99.90
4058;DHT22;2044;48.692;9.020;2022-10-16T11:46:02;25.20;99.90
4058;DHT22;2044;48.692;9.020;2022-10-16T11:48:35;24.60;99.90
4058;DHT22;2044;48.692;9.020;2022-10-16T11:51:08;23.80;99.90
4058;DHT22;2044;48.692;9.020;2022-10-16T11:53:45;23.50;99.90
4058;DHT22;2044;48.692;9.020;2022-10-16T11:56:13;24.10;99.90
4058;DHT22;2044;48.692;9.020;2022-10-16T11:58:51;25.60;99.90
4058;DHT22;2044;48.692;9.020;2022-10-16T12:01:24;26.00;99.90
4058;DHT22;2044;48.692;9.020;2022-10-16T12:04:02;25.30;99.90
4058;DHT22;2044;48.692;9.020;2022-10-16T12:06:35;24.20;99.90
4058;DHT22;2044;48.692;9.020;2022-10-16T12:09:04;23.80;99.90
4058;DHT22;2044;48.692;9.020;2022-10-16T12:11:34;24.50;99.90
4058;DHT22;2044;48.692;9.020;2022-10-16T12:14:19;25.30;99.90
4058;DHT22;2044;48.692;9.020;2022-10-16T12:16:54;25.10;99.90
4058;DHT22;2044;48.692;9.020;2022-10-16T12:19:22;24.80;99.90
4058;DHT22;2044;48.692;9.020;2022-10-16T12:21:50;24.00;99.90
4058;DHT22;2044;48.692;9.020;2022-10-16T12:24:27;24.10;99.90
4058;DHT22;2044;48.692;9.020;2022-10-16T12:26:56;24.50;99.90
4058;DHT22;2044;48.692;9.020;2022-10-16T12:29:32;24.30;99.90
4058;DHT22;2044;48.692;9.020;2022-10-16T12:31:59;25.30;99.90
4058;DHT22;2044;48.692;9.020;2022-10-16T12:34:29;26.00;99.90
4058;DHT22;2044;48.692;9.020;2022-10-16T12:37:06;25.30;99.90
4058;DHT22;2044;48.692;9.020;2022-10-16T12:39:34;25.30;99.90
4058;DHT22;2044;48.692;9.020;2022-10-16T12:42:03;24.50;99.90
4058;DHT22;2044;48.692;9.020;2022-10-16T12:44:36;23.80;99.90
4058;DHT22;2044;48.692;9.020;2022-10-16T12:47:03;23.70;99.90
4058;DHT22;2044;48.692;9.020;2022-10-16T12:49:36;24.10;99.90
4058;DHT22;2044;48.692;9.020;2022-10-16T12:52:03;24.40;99.90
4058;DHT22;2044;48.692;9.020;2022-10-16T12:54:31;24.60;99.90
4058;DHT22;2044;48.692;9.020;2022-10-16T12:57:24;24.80;99.90
4058;DHT22;2044;48.692;9.020;2022-10-16T13:00:03;25.00;99.90
4058;DHT22;2044;48.692;9.020;2022-10-16T13:03:06;25.00;99.90
4058;DHT22;2044;48.692;9.020;2022-10-16T13:05:57;24.90;99.90
4058;DHT22;2044;48.692;9.020;2022-10-16T13:08:38;25.00;99.90
4058;DHT22;2044;48.692;9.020;2022-10-16T13:11:17;25.10;99.90
4058;DHT22;2044;48.692;9.020;2022-10-16T13:14:02;25.50;99.90
4058;DHT22;2044;48.692;9.020;2022-10-16T13:16:41;25.50;99.90
4058;DHT22;2044;48.692;9.020;2022-10-16T13:19:23;25.50;99.90
4058;DHT22;2044;48.692;9.020;2022-10-16T13:21:56;25.60;99.90
4058;DHT22;2044;48.692;9.020;2022-10-16T13:24:41;25.50;99.90
4058;DHT22;2044;48.692;9.020;2022-10-16T13:27:14;25.80;99.90
4058;DHT22;2044;48.692;9.020;2022-10-16T13:29:45;26.30;99.90
4058;DHT22;2044;48.692;9.020;2022-10-16T13:32:20;26.60;99.90
4058;DHT22;2044;48.692;9.020;2022-10-16T13:34:48;27.00;99.90
4058;DHT22;2044;48.692;9.020;2022-10-16T13:37:18;27.00;99.90
4058;DHT22;2044;48.692;9.020;2022-10-16T13:39:46;27.00;99.90
4058;DHT22;2044;48.692;9.020;2022-10-16T13:42:15;27.00;99.90
4058;DHT22;2044;48.692;9.020;2022-10-16T13:44:46;26.80;99.90
4058;DHT22;2044;48.692;9.020;2022-10-16T13:47:18;26.60;99.90
4058;DHT22;2044;48.692;9.020;2022-10-16T13:49:48;26.70;99.90
4058;DHT22;2044;48.692;9.020;2022-10-16T13:52:24;26.30;99.90
4058;DHT22;2044;48.692;9.020;2022-10-16T13:54:51;26.10;99.90
4058;DHT22;2044;48.692;9.020;2022-10-16T13:57:22;25.90;99.90
4058;DHT22;2044;48.692;9.020;2022-10-16T13:59:49;25.70;99.90
4058;DHT22;2044;48.692;9.020;2022-10-16T14:02:20;25.20;99.90
4058;DHT22;2044;48.692;9.020;2022-10-16T14:04:50;25.20;99.90
4058;DHT22;2044;48.692;9.020;2022-10-16T14:07:22;24.80;99.90
4058;DHT22;2044;48.692;9.020;2022-10-16T14:09:50;24.80;99.90
4058;DHT22;2044;48.692;9.020;2022-10-16T14:12:17;24.90;99.90
4058;DHT22;2044;48.692;9.020;2022-10-16T14:14:46;25.00;99.90
4058;DHT22;2044;48.692;9.020;2022-10-16T14:17:14;24.90;99.90
4058;DHT22;2044;48.692;9.020;2022-10-16T14:19:46;24.70;99.90
4058;DHT22;2044;48.692;9.020;2022-10-16T14:22:26;24.40;99.90
4058;DHT22;2044;48.692;9.020;2022-10-16T14:24:53;24.30;99.90
4058;DHT22;2044;48.692;9.020;2022-10-16T14:27:30;24.20;99.90
4058;DHT22;2044;48.692;9.020;2022-10-16T14:30:14;24.20;99.90
4058;DHT22;2044;48.692;9.020;2022-10-16T14:32:53;24.20;99.90
4058;DHT22;2044;48.692;9.020;2022-10-16T14:35:26;24.10;99.90
4058;DHT22;2044;48.692;9.020;2022-10-16T14:37:55;24.10;99.90
4058;DHT22;2044;48.692;9.020;2022-10-16T14:40:25;23.70;99.90
4058;DHT22;2044;48.692;9.020;2022-10-16T14:42:53;23.70;99.90
4058;DHT22;2044;48.692;9.020;2022-10-16T14:45:21;24.00;99.90
4058;DHT22;2044;48.692;9.020;2022-10-16T14:47:50;24.30;99.90
4058;DHT22;2044;48.692;9.020;2022-10-16T14:50:18;23.80;99.90
4058;DHT22;2044;48.692;9.020;2022-10-16T14:52:45;23.80;99.90
4058;DHT22;2044;48.692;9.020;2022-10-16T14:55:13;23.40;99.90
4058;DHT22;2044;48.692;9.020;2022-10-16T14:57:40;23.50;99.90
4058;DHT22;2044;48.692;9.020;2022-10-16T15:00:14;23.70;99.90
4058;DHT22;2044;48.692;9.020;2022-10-16T15:02:42;23.70;99.90
4058;DHT22;2044;48.692;9.020;2022-10-16T15:05:16;23.30;99.90
4058;DHT22;2044;48.692;9.020;2022-10-16T15:07:44;23.20;99.90
4058;DHT22;2044;48.692;9.020;2022-10-16T15:10:13;23.00;99.90
4058;DHT22;2044;48.692;9.020;2022-10-16T15:12:40;22.50;99.90
4058;DHT22;2044;48.692;9.020;2022-10-16T15:15:24;22.50;99.90
4058;DHT22;2044;48.692;9.020;2022-10-16T15:17:52;22.50;1.00
4058;DHT22;2044;48.692;9.020;2022-10-16T15:20:22;22.40;1.00
4058;DHT22;2044;48.692;9.020;2022-10-16T15:22:49;22.30;1.00
4058;DHT22;2044;48.692;9.020;2022-10-16T15:25:29;22.10;1.00
4058;DHT22;2044;48.692;9.020;2022-10-16T15:27:56;22.10;1.00
4058;DHT22;2044;48.692;9.020;2022-10-16T15:30:23;22.00;36.70
4058;DHT22;2044;48.692;9.020;2022-10-16T15:32:50;21.70;99.90
4058;DHT22;2044;48.692;9.020;2022-10-16T15:35:17;21.50;99.90
4058;DHT22;2044;48.692;9.020;2022-10-16T15:37:44;21.20;99.90
4058;DHT22;2044;48.692;9.020;2022-10-16T15:40:12;21.10;1.00
4058;DHT22;2044;48.692;9.020;2022-10-16T15:42:40;20.90;46.10
4058;DHT22;2044;48.692;9.020;2022-10-16T15:45:09;20.70;99.90
4058;DHT22;2044;48.692;9.020;2022-10-16T15:47:35;20.60;99.90
4058;DHT22;2044;48.692;9.020;2022-10-16T15:50:03;20.50;1.00
4058;DHT22;2044;48.692;9.020;2022-10-16T15:52:29;20.50;1.00
4058;DHT22;2044;48.692;9.020;2022-10-16T15:54:57;20.40;1.00
4058;DHT22;2044;48.692;9.020;2022-10-16T15:57:24;20.30;37.80
4058;DHT22;2044;48.692;9.020;2022-10-16T15:59:52;20.10;99.90
4058;DHT22;2044;48.692;9.020;2022-10-16T16:02:19;20.00;99.90
4058;DHT22;2044;48.692;9.020;2022-10-16T16:04:45;19.90;99.90
4058;DHT22;2044;48.692;9.020;2022-10-16T16:07:12;19.70;1.00
4058;DHT22;2044;48.692;9.020;2022-10-16T16:09:39;19.60;99.90
4058;DHT22;2044;48.692;9.020;2022-10-16T16:12:06;19.50;99.90
4058;DHT22;2044;48.692;9.020;2022-10-16T16:14:33;19.50;1.00
4058;DHT22;2044;48.692;9.020;2022-10-16T16:17:01;19.40;99.90
4058;DHT22;2044;48.692;9.020;2022-10-16T16:19:28;19.40;99.90
4058;DHT22;2044;48.692;9.020;2022-10-16T16:21:55;19.40;99.90
4058;DHT22;2044;48.692;9.020;2022-10-16T16:24:21;19.30;99.90
4058;DHT22;2044;48.692;9.020;2022-10-16T16:26:48;19.40;99.90
4058;DHT22;2044;48.692;9.020;2022-10-16T16:29:15;19.30;99.90